Time;durP1;ratioP1;P1;durP2;ratioP2;P2;SDS_P1;SDS_P2;PMS_P1;PMS_P2;Temp;Humidity;BMP_temperature;BMP_pressure;BME280_temperature;BME280_humidity;BME280_pressure;Samples;Min_cycle;Max_cycle;Signal;HPM_P1;HPM_P2
2022/08/29 00:00:29;;;;;;;11.65;8.10;;;13.60;99.90;;;;;;5031559;28;20029;-78
2022/08/29 00:02:58;;;;;;;8.57;7.65;;;13.60;99.90;;;;;;5033922;28;20053;-79
2022/08/29 00:05:32;;;;;;;8.68;7.78;;;13.70;99.90;;;;;;5034182;28;20013;-78
2022/08/29 00:08:01;;;;;;;10.18;7.35;;;13.80;99.90;;;;;;5034197;28;20034;-75
2022/08/29 00:10:30;;;;;;;13.45;6.78;;;13.80;99.90;;;;;;5033615;28;20021;-78
2022/08/29 00:13:32;;;;;;;7.07;6.05;;;13.90;99.90;;;;;;5033674;28;20026;-77
2022/08/29 00:16:00;;;;;;;8.95;7.10;;;13.90;99.90;;;;;;5608253;22;20045;-77
2022/08/29 00:18:27;;;;;;;8.27;6.28;;;14.00;99.90;;;;;;5042536;28;20073;-76
2022/08/29 00:20:55;;;;;;;7.00;6.28;;;14.00;99.90;;;;;;5043818;28;20027;-77
2022/08/29 00:23:22;;;;;;;12.05;7.05;;;14.10;99.90;;;;;;5045068;28;20017;-77
2022/08/29 00:25:49;;;;;;;7.55;6.20;;;14.10;99.90;;;;;;5043683;28;20067;-77
2022/08/29 00:28:17;;;;;;;7.63;6.85;;;14.20;99.90;;;;;;5043546;28;20032;-77
2022/08/29 00:30:44;;;;;;;9.55;6.65;;;14.30;99.90;;;;;;5045001;28;20069;-77
2022/08/29 00:33:13;;;;;;;7.68;6.50;;;14.40;99.90;;;;;;5043581;28;20036;-76
2022/08/29 00:35:42;;;;;;;6.50;5.88;;;14.50;99.90;;;;;;5042815;28;20029;-79
2022/08/29 00:38:11;;;;;;;12.68;5.47;;;14.60;99.90;;;;;;5044532;28;20038;-81
2022/08/29 00:40:43;;;;;;;8.65;4.93;;;14.60;99.90;;;;;;5043219;28;20017;-79
2022/08/29 00:43:11;;;;;;;6.60;4.55;;;14.70;99.90;;;;;;5043370;28;20025;-79
2022/08/29 00:45:53;;;;;;;4.63;4.07;;;14.70;99.90;;;;;;5042583;28;20013;-78
2022/08/29 00:48:21;;;;;;;5.28;3.75;;;14.80;99.90;;;;;;5026692;28;20037;-78
2022/08/29 00:51:00;;;;;;;3.88;3.25;;;14.80;99.90;;;;;;5042990;28;20496;-75
2022/08/29 00:53:36;;;;;;;3.45;2.97;;;14.80;99.90;;;;;;5042928;28;20100;-80
2022/08/29 00:56:06;;;;;;;4.25;3.00;;;14.90;99.90;;;;;;5042517;28;20470;-74
2022/08/29 00:58:47;;;;;;;4.57;3.30;;;15.00;99.90;;;;;;5043177;28;20069;-77
2022/08/29 01:01:15;;;;;;;4.38;2.65;;;15.10;99.90;;;;;;5043592;28;20076;-78
2022/08/29 01:03:43;;;;;;;4.38;2.83;;;15.10;99.90;;;;;;5034174;28;20048;-74
2022/08/29 01:06:12;;;;;;;4.25;2.65;;;15.10;99.90;;;;;;5016219;28;20033;-73
2022/08/29 01:08:40;;;;;;;3.00;2.45;;;15.10;99.90;;;;;;5033755;28;20017;-79
2022/08/29 01:13:56;;;;;;;3.58;2.50;;;15.30;99.90;;;;;;5033600;28;20117;-74
2022/08/29 01:16:24;;;;;;;5.53;1.60;;;15.40;99.90;;;;;;5051044;28;20053;-75
2022/08/29 01:18:56;;;;;;;2.40;1.50;;;15.50;99.90;;;;;;5053215;28;20037;-76
2022/08/29 01:21:40;;;;;;;3.58;1.80;;;15.60;99.90;;;;;;5053802;28;20021;-75
2022/08/29 01:24:34;;;;;;;1.77;1.35;;;15.70;99.90;;;;;;5053287;28;20024;-81
2022/08/29 01:27:02;;;;;;;4.35;1.40;;;15.70;99.90;;;;;;5053531;28;20033;-74
2022/08/29 01:29:29;;;;;;;1.85;1.50;;;15.80;99.90;;;;;;5051962;28;20017;-74
2022/08/29 01:31:57;;;;;;;4.80;1.58;;;15.80;99.90;;;;;;5025246;28;20386;-76
2022/08/29 01:34:26;;;;;;;2.47;1.55;;;15.90;99.90;;;;;;5041771;28;20018;-77
2022/08/29 01:36:57;;;;;;;3.33;1.42;;;16.00;99.90;;;;;;5042922;28;20029;-79
2022/08/29 01:39:28;;;;;;;2.58;1.20;;;16.10;99.90;;;;;;5043588;28;20119;-81
2022/08/29 01:41:59;;;;;;;2.58;1.10;;;16.20;99.90;;;;;;5043009;28;20071;-80
2022/08/29 01:44:26;;;;;;;1.77;1.15;;;16.30;99.90;;;;;;5041148;28;20032;-80
2022/08/29 01:46:58;;;;;;;1.85;1.20;;;16.40;99.90;;;;;;5042336;28;20552;-76
2022/08/29 01:49:26;;;;;;;2.50;1.13;;;16.40;99.90;;;;;;5044029;28;20043;-76
2022/08/29 01:51:54;;;;;;;1.88;1.10;;;16.50;99.90;;;;;;5042462;28;20108;-78
2022/08/29 01:54:21;;;;;;;3.38;1.08;;;16.50;99.90;;;;;;5041807;28;20048;-75
2022/08/29 01:56:51;;;;;;;5.07;1.60;;;16.60;99.90;;;;;;5041576;28;20025;-76
2022/08/29 01:59:24;;;;;;;1.33;0.88;;;16.60;99.90;;;;;;5041325;28;20024;-80
2022/08/29 02:02:05;;;;;;;1.40;0.90;;;16.60;99.90;;;;;;5042030;28;20022;-82
2022/08/29 02:04:33;;;;;;;1.75;1.20;;;16.70;99.90;;;;;;5040432;28;20366;-79
2022/08/29 02:07:01;;;;;;;1.88;0.85;;;16.70;99.90;;;;;;5039199;28;20045;-82
2022/08/29 02:09:29;;;;;;;2.25;0.95;;;16.80;99.90;;;;;;5043513;28;20053;-75
2022/08/29 02:12:01;;;;;;;1.67;0.90;;;16.80;99.90;;;;;;5043961;28;20021;-76
2022/08/29 02:14:29;;;;;;;5.72;1.20;;;16.80;99.90;;;;;;5041851;28;20018;-75
2022/08/29 02:16:57;;;;;;;2.25;1.10;;;16.80;99.90;;;;;;5041898;28;20052;-76
2022/08/29 02:19:24;;;;;;;1.80;1.27;;;16.90;99.90;;;;;;5043104;28;20032;-77
2022/08/29 02:21:51;;;;;;;2.00;0.85;;;16.80;99.90;;;;;;5041476;28;20057;-78
2022/08/29 02:24:19;;;;;;;1.77;1.23;;;16.90;99.90;;;;;;5041771;28;20031;-74
2022/08/29 02:26:46;;;;;;;1.42;0.80;;;16.80;99.90;;;;;;5043311;28;20017;-79
2022/08/29 02:29:13;;;;;;;3.70;1.08;;;16.80;99.90;;;;;;5041726;28;20033;-74
2022/08/29 02:31:42;;;;;;;1.95;0.90;;;16.80;99.90;;;;;;5041261;28;20021;-74
2022/08/29 02:34:10;;;;;;;2.05;1.13;;;16.80;99.90;;;;;;5034803;28;20111;-73
2022/08/29 02:36:37;;;;;;;2.70;1.02;;;16.80;99.90;;;;;;5032108;28;20017;-79
2022/08/29 02:39:05;;;;;;;2.92;1.63;;;16.80;99.90;;;;;;5041835;28;20025;-78
2022/08/29 02:41:32;;;;;;;1.98;1.20;;;16.80;99.90;;;;;;5037605;28;20056;-78
2022/08/29 02:44:00;;;;;;;2.17;0.80;;;16.90;99.90;;;;;;5036958;28;20616;-73
2022/08/29 02:46:27;;;;;;;2.13;1.08;;;16.90;99.90;;;;;;5052377;28;20369;-75
2022/08/29 02:48:54;;;;;;;1.60;1.10;;;16.90;99.90;;;;;;5049717;28;20024;-74
2022/08/29 02:51:27;;;;;;;1.80;1.02;;;17.00;99.90;;;;;;5046980;28;20072;-80
2022/08/29 02:53:55;;;;;;;1.83;1.33;;;17.00;99.90;;;;;;5045858;28;20040;-80
2022/08/29 02:56:23;;;;;;;2.80;1.08;;;17.00;99.90;;;;;;5044840;28;20078;-76
2022/08/29 02:58:50;;;;;;;1.92;1.20;;;17.00;99.90;;;;;;5045220;28;20035;-78
2022/08/29 03:01:19;;;;;;;4.10;1.17;;;17.10;99.90;;;;;;5045609;28;20116;-76
2022/08/29 03:03:47;;;;;;;3.67;1.30;;;17.20;99.90;;;;;;5046906;28;20020;-74
2022/08/29 03:06:14;;;;;;;2.33;1.20;;;17.30;99.90;;;;;;5045345;28;20029;-75
2022/08/29 03:08:42;;;;;;;1.90;0.80;;;17.30;99.90;;;;;;5045121;28;20024;-74
2022/08/29 03:11:14;;;;;;;2.20;1.02;;;17.40;99.90;;;;;;5044175;28;20053;-74
2022/08/29 03:13:43;;;;;;;3.58;1.08;;;17.40;99.90;;;;;;5044859;28;20013;-76
2022/08/29 03:16:12;;;;;;;4.82;1.00;;;17.40;99.90;;;;;;5044103;28;20031;-74
2022/08/29 03:18:40;;;;;;;3.40;0.90;;;17.40;99.90;;;;;;5044776;28;20060;-74
2022/08/29 03:21:19;;;;;;;2.83;1.20;;;17.40;99.90;;;;;;5046540;28;20092;-74
2022/08/29 03:23:47;;;;;;;2.50;1.10;;;17.40;99.90;;;;;;5046148;28;20092;-74
2022/08/29 03:26:15;;;;;;;3.25;0.93;;;17.40;99.90;;;;;;5045079;28;20057;-75
2022/08/29 03:28:43;;;;;;;1.83;0.70;;;17.30;99.90;;;;;;5044080;28;20028;-84
2022/08/29 03:31:11;;;;;;;2.03;0.70;;;17.30;99.90;;;;;;5044453;28;20024;-84
2022/08/29 03:33:39;;;;;;;2.00;0.82;;;17.30;99.90;;;;;;5044787;28;20024;-88
2022/08/29 03:36:09;;;;;;;2.05;1.25;;;17.30;99.90;;;;;;5045746;28;20036;-84
2022/08/29 03:38:37;;;;;;;2.38;1.25;;;17.20;99.90;;;;;;5044805;28;20032;-83
2022/08/29 03:41:08;;;;;;;1.40;0.88;;;17.20;99.90;;;;;;5045883;28;20021;-82
2022/08/29 03:43:36;;;;;;;1.05;0.70;;;17.20;99.90;;;;;;5040259;28;20048;-77
2022/08/29 03:46:04;;;;;;;3.65;0.60;;;17.10;99.90;;;;;;5044042;28;20025;-80
2022/08/29 03:48:32;;;;;;;1.17;0.63;;;17.10;99.90;;;;;;5042093;28;20018;-82
2022/08/29 03:51:00;;;;;;;1.35;0.80;;;17.00;99.90;;;;;;5042710;28;20025;-75
2022/08/29 03:53:28;;;;;;;3.30;1.08;;;17.00;99.90;;;;;;5043788;28;20074;-81
2022/08/29 03:55:55;;;;;;;3.70;0.93;;;17.00;99.90;;;;;;5043733;28;20493;-82
2022/08/29 03:58:23;;;;;;;1.55;0.77;;;16.90;99.90;;;;;;5042532;28;20045;-77
2022/08/29 04:00:51;;;;;;;6.40;0.82;;;16.90;99.90;;;;;;5043718;28;20477;-77
2022/08/29 04:03:19;;;;;;;9.50;1.23;;;16.90;99.90;;;;;;5044369;28;20464;-78
2022/08/29 04:05:46;;;;;;;2.13;0.93;;;17.00;99.90;;;;;;5043845;28;20434;-77
2022/08/29 04:08:14;;;;;;;2.85;1.10;;;16.90;99.90;;;;;;5039455;28;20524;-81
2022/08/29 04:10:42;;;;;;;2.50;0.88;;;17.00;99.90;;;;;;5039680;28;20076;-79
2022/08/29 04:13:10;;;;;;;1.92;0.82;;;17.00;99.90;;;;;;5041685;28;20024;-79
2022/08/29 04:15:40;;;;;;;3.50;0.85;;;17.00;99.90;;;;;;5024406;28;20025;-79
2022/08/29 04:18:09;;;;;;;0.80;0.43;;;17.10;99.90;;;;;;5043683;28;20648;-75
2022/08/29 04:20:43;;;;;;;3.30;0.77;;;17.10;99.90;;;;;;5043406;28;20065;-82
2022/08/29 04:23:14;;;;;;;6.25;1.02;;;17.10;99.90;;;;;;5043377;28;20018;-83
2022/08/29 04:25:43;;;;;;;1.58;0.55;;;17.20;99.90;;;;;;5043371;28;20021;-79
2022/08/29 04:28:13;;;;;;;4.03;1.15;;;17.20;99.90;;;;;;5043573;28;20093;-82
2022/08/29 04:30:48;;;;;;;2.35;0.50;;;17.20;99.90;;;;;;5043446;28;20377;-82
2022/08/29 04:33:16;;;;;;;3.03;0.60;;;17.20;99.90;;;;;;5043889;28;20103;-83
2022/08/29 04:35:43;;;;;;;3.10;0.88;;;17.10;99.90;;;;;;5042739;28;20021;-77
2022/08/29 04:38:11;;;;;;;2.63;0.95;;;17.00;99.90;;;;;;5043301;28;20034;-83
2022/08/29 04:40:40;;;;;;;2.45;0.95;;;17.00;99.90;;;;;;5025489;28;20369;-83
2022/08/29 04:43:08;;;;;;;3.05;0.80;;;16.90;99.90;;;;;;5044678;28;20031;-82
2022/08/29 04:45:39;;;;;;;2.00;0.82;;;16.80;99.90;;;;;;5043853;28;20413;-83
2022/08/29 04:48:08;;;;;;;2.20;0.75;;;16.80;99.90;;;;;;5042762;28;20026;-75
2022/08/29 04:50:36;;;;;;;2.40;0.70;;;16.80;99.90;;;;;;5043749;28;20662;-82
2022/08/29 04:53:04;;;;;;;1.88;0.70;;;16.70;99.90;;;;;;5044655;28;20025;-80
2022/08/29 04:55:32;;;;;;;6.10;1.33;;;16.70;99.90;;;;;;5043061;28;20014;-83
2022/08/29 04:58:00;;;;;;;3.00;0.68;;;16.70;99.90;;;;;;5043233;28;20029;-81
2022/08/29 05:00:28;;;;;;;1.50;0.60;;;16.70;99.90;;;;;;5044325;28;20017;-83
2022/08/29 05:02:56;;;;;;;2.75;0.68;;;16.70;99.90;;;;;;5043131;28;20108;-82
2022/08/29 05:05:24;;;;;;;1.70;0.77;;;16.60;99.90;;;;;;5041857;28;20713;-81
2022/08/29 05:07:52;;;;;;;2.17;0.80;;;16.60;99.90;;;;;;5042307;28;20013;-82
2022/08/29 05:10:21;;;;;;;4.60;0.80;;;16.50;99.90;;;;;;5044016;28;20025;-78
2022/08/29 05:12:49;;;;;;;4.57;0.80;;;16.60;99.90;;;;;;5042407;28;20021;-79
2022/08/29 05:15:17;;;;;;;3.03;1.15;;;16.50;99.90;;;;;;5043351;28;20013;-79
2022/08/29 05:17:45;;;;;;;6.50;0.88;;;16.50;99.90;;;;;;5044138;28;20056;-72
2022/08/29 05:20:13;;;;;;;3.03;0.73;;;16.60;99.90;;;;;;5042853;28;20014;-80
2022/08/29 05:22:41;;;;;;;6.38;1.13;;;16.60;99.90;;;;;;5042639;28;20048;-78
2022/08/29 05:25:11;;;;;;;4.28;0.80;;;16.50;99.90;;;;;;5042123;28;20022;-76
2022/08/29 05:27:40;;;;;;;7.57;1.60;;;16.50;99.90;;;;;;5042751;28;20017;-79
2022/08/29 05:30:08;;;;;;;3.22;0.80;;;16.50;99.90;;;;;;5026077;28;20013;-72
2022/08/29 05:32:36;;;;;;;2.45;0.75;;;16.50;99.90;;;;;;5043133;28;20029;-73
2022/08/29 05:35:04;;;;;;;2.45;1.00;;;16.50;99.90;;;;;;5045941;28;20108;-76
2022/08/29 05:37:32;;;;;;;2.58;0.63;;;16.50;99.90;;;;;;5050791;28;20098;-76
2022/08/29 05:40:00;;;;;;;3.35;0.75;;;16.40;99.90;;;;;;5052013;28;20012;-79
2022/08/29 05:42:28;;;;;;;3.78;0.70;;;16.40;99.90;;;;;;5051987;28;20021;-79
2022/08/29 05:44:56;;;;;;;3.85;0.88;;;16.30;99.90;;;;;;5051450;28;20020;-79
2022/08/29 05:47:24;;;;;;;2.53;0.73;;;16.30;99.90;;;;;;5050904;28;20351;-77
2022/08/29 05:49:52;;;;;;;5.05;1.15;;;16.30;99.90;;;;;;5052245;28;20017;-78
2022/08/29 05:52:21;;;;;;;2.10;0.80;;;16.20;99.90;;;;;;5050766;28;20029;-76
2022/08/29 05:54:49;;;;;;;2.83;0.80;;;16.20;99.90;;;;;;5050340;28;20017;-78
2022/08/29 05:57:20;;;;;;;4.95;1.00;;;16.20;99.90;;;;;;5050158;28;20108;-79
2022/08/29 05:59:53;;;;;;;4.30;0.95;;;16.20;99.90;;;;;;5050973;28;20387;-78
2022/08/29 06:02:22;;;;;;;2.05;0.65;;;16.10;99.90;;;;;;5051455;28;20017;-73
2022/08/29 06:04:50;;;;;;;7.57;1.05;;;16.10;99.90;;;;;;5049193;28;20079;-80
2022/08/29 06:07:18;;;;;;;9.20;1.02;;;16.10;99.90;;;;;;5052215;28;20032;-78
2022/08/29 06:09:46;;;;;;;4.75;1.10;;;16.10;99.90;;;;;;5049635;28;20100;-79
2022/08/29 06:12:14;;;;;;;4.75;0.93;;;16.00;99.90;;;;;;5050763;28;20071;-78
2022/08/29 06:14:43;;;;;;;2.33;0.80;;;16.00;99.90;;;;;;5050029;28;20052;-75
2022/08/29 06:17:11;;;;;;;3.08;1.13;;;16.00;99.90;;;;;;5053418;28;20374;-77
2022/08/29 06:19:39;;;;;;;2.30;1.00;;;16.00;99.90;;;;;;5055839;28;20021;-77
2022/08/29 06:22:10;;;;;;;4.20;1.52;;;16.00;99.90;;;;;;5053432;28;20049;-79
2022/08/29 06:24:39;;;;;;;2.03;0.70;;;16.00;99.90;;;;;;5053195;28;20092;-79
2022/08/29 06:27:07;;;;;;;6.05;1.27;;;16.00;99.90;;;;;;5054068;28;20051;-78
2022/08/29 06:29:35;;;;;;;2.75;0.85;;;15.90;99.90;;;;;;5054680;28;20021;-79
2022/08/29 06:32:03;;;;;;;3.60;1.42;;;15.90;99.90;;;;;;5054377;28;20115;-78
2022/08/29 06:34:30;;;;;;;8.88;1.58;;;15.90;99.90;;;;;;5055076;28;20104;-79
2022/08/29 06:36:58;;;;;;;6.18;1.23;;;15.90;99.90;;;;;;5055406;28;20044;-78
2022/08/29 06:39:26;;;;;;;3.80;1.23;;;15.90;99.90;;;;;;5053495;28;20017;-79
2022/08/29 06:41:54;;;;;;;5.97;1.75;;;15.80;99.90;;;;;;5052673;28;20469;-78
2022/08/29 06:44:22;;;;;;;9.98;2.10;;;15.80;99.90;;;;;;5055354;28;20382;-79
2022/08/29 06:46:50;;;;;;;8.35;2.28;;;15.80;99.90;;;;;;5055432;28;20104;-80
2022/08/29 06:49:19;;;;;;;6.55;1.50;;;15.70;99.90;;;;;;5053286;28;20028;-79
2022/08/29 06:51:50;;;;;;;9.95;2.90;;;15.70;99.90;;;;;;5053614;28;20521;-78
2022/08/29 06:54:21;;;;;;;7.70;1.45;;;15.70;99.90;;;;;;5052670;28;20394;-78
2022/08/29 06:56:49;;;;;;;8.13;1.70;;;15.60;99.90;;;;;;5053521;28;20028;-77
2022/08/29 06:59:18;;;;;;;1.85;0.90;;;15.60;99.90;;;;;;5036548;28;20082;-78
2022/08/29 07:01:46;;;;;;;6.20;2.10;;;15.50;99.90;;;;;;5054685;28;20021;-77
2022/08/29 07:04:15;;;;;;;6.97;1.92;;;15.50;99.90;;;;;;5053783;28;20029;-76
2022/08/29 07:06:43;;;;;;;4.63;1.58;;;15.50;99.90;;;;;;5052908;28;20017;-77
2022/08/29 07:09:12;;;;;;;5.50;1.30;;;15.50;99.90;;;;;;5051230;28;20036;-78
2022/08/29 07:11:41;;;;;;;6.55;1.15;;;15.50;99.90;;;;;;5053499;28;20036;-78
2022/08/29 07:14:09;;;;;;;9.30;1.88;;;15.40;99.90;;;;;;5052552;28;20055;-75
2022/08/29 07:16:39;;;;;;;3.38;0.90;;;15.40;99.90;;;;;;5050988;28;20044;-79
2022/08/29 07:19:09;;;;;;;7.40;2.03;;;15.40;99.90;;;;;;5051491;28;20033;-79
2022/08/29 07:21:37;;;;;;;6.30;1.27;;;15.40;99.90;;;;;;5053467;28;20379;-79
2022/08/29 07:24:06;;;;;;;4.07;1.13;;;15.40;99.90;;;;;;5050140;28;20462;-80
2022/08/29 07:26:40;;;;;;;3.50;1.10;;;15.40;99.90;;;;;;5052854;28;20024;-75
2022/08/29 07:29:13;;;;;;;5.25;1.35;;;15.40;99.90;;;;;;5048798;28;20025;-80
2022/08/29 07:31:41;;;;;;;9.05;1.88;;;15.30;99.90;;;;;;5053322;28;20025;-79
2022/08/29 07:34:09;;;;;;;7.38;2.88;;;15.30;99.90;;;;;;5035892;28;20017;-79
2022/08/29 07:36:38;;;;;;;11.75;1.42;;;15.30;99.90;;;;;;5053203;28;20017;-79
2022/08/29 07:39:12;;;;;;;6.72;1.73;;;15.30;99.90;;;;;;5052678;28;20033;-80
2022/08/29 07:41:40;;;;;;;10.70;2.10;;;15.20;99.90;;;;;;5050066;28;20021;-77
2022/08/29 07:44:09;;;;;;;8.70;1.20;;;15.10;99.90;;;;;;5052521;28;20025;-78
2022/08/29 07:46:37;;;;;;;8.82;1.73;;;15.10;99.90;;;;;;5052257;28;20017;-78
2022/08/29 07:49:06;;;;;;;4.13;1.63;;;15.10;99.90;;;;;;5050907;28;20021;-78
2022/08/29 07:51:34;;;;;;;4.00;1.30;;;15.10;99.90;;;;;;5053843;28;20084;-78
2022/08/29 07:54:02;;;;;;;6.25;1.20;;;15.00;99.90;;;;;;5052882;28;20537;-75
2022/08/29 07:56:38;;;;;;;6.60;2.15;;;15.00;99.90;;;;;;5053194;28;20375;-75
2022/08/29 07:59:07;;;;;;;2.95;1.73;;;15.00;99.90;;;;;;5048001;28;20060;-80
2022/08/29 08:01:35;;;;;;;4.10;1.42;;;15.00;99.90;;;;;;5054618;28;20039;-76
2022/08/29 08:04:03;;;;;;;4.15;1.75;;;15.00;99.90;;;;;;5052636;28;20021;-75
2022/08/29 08:06:31;;;;;;;4.75;1.27;;;15.00;99.90;;;;;;5052602;28;20043;-77
2022/08/29 08:08:59;;;;;;;2.30;0.90;;;15.00;99.90;;;;;;5052280;28;20017;-78
2022/08/29 08:11:27;;;;;;;4.80;1.67;;;15.00;99.90;;;;;;5053057;28;20028;-79
2022/08/29 08:13:56;;;;;;;2.97;1.13;;;15.00;99.90;;;;;;5053653;28;20013;-76
2022/08/29 08:16:26;;;;;;;5.25;1.42;;;15.00;99.90;;;;;;5049479;28;20045;-78
2022/08/29 08:18:55;;;;;;;4.93;1.88;;;15.00;99.90;;;;;;5052071;28;20032;-78
2022/08/29 08:21:24;;;;;;;3.65;1.60;;;15.00;99.90;;;;;;5033962;28;20017;-77
2022/08/29 08:23:52;;;;;;;2.38;0.98;;;15.00;99.90;;;;;;5051644;28;20021;-72
2022/08/29 08:26:20;;;;;;;3.38;0.98;;;15.00;99.90;;;;;;5052151;28;20095;-80
2022/08/29 08:28:48;;;;;;;4.70;1.38;;;14.90;99.90;;;;;;5052903;28;20025;-79
2022/08/29 08:31:17;;;;;;;5.63;1.67;;;14.90;99.90;;;;;;5052164;28;20477;-78
2022/08/29 08:33:46;;;;;;;7.82;1.90;;;14.90;99.90;;;;;;5051715;28;20107;-80
2022/08/29 08:36:18;;;;;;;6.15;1.90;;;14.90;99.90;;;;;;5052661;28;20040;-79
2022/08/29 08:38:47;;;;;;;6.40;1.92;;;14.80;99.90;;;;;;5049531;28;20491;-78
2022/08/29 08:41:24;;;;;;;8.73;1.75;;;14.80;99.90;;;;;;5051411;28;20021;-81
2022/08/29 08:43:53;;;;;;;5.40;1.65;;;14.80;99.90;;;;;;5051486;28;20020;-75
2022/08/29 08:46:35;;;;;;;8.57;2.22;;;14.80;99.90;;;;;;5052909;28;20100;-78
2022/08/29 08:49:11;;;;;;;7.97;1.88;;;14.70;99.90;;;;;;5048925;28;20073;-80
2022/08/29 08:51:42;;;;;;;6.97;1.73;;;14.70;99.90;;;;;;5050171;28;20103;-76
2022/08/29 08:54:19;;;;;;;5.63;1.70;;;14.70;99.90;;;;;;5050283;28;20484;-76
2022/08/29 08:56:58;;;;;;;7.55;1.17;;;14.70;99.90;;;;;;5024558;28;20061;-80
2022/08/29 08:59:33;;;;;;;8.20;1.95;;;14.70;99.90;;;;;;5047958;28;20038;-76
2022/08/29 09:02:00;;;;;;;3.45;1.42;;;14.60;99.90;;;;;;5049547;28;20028;-79
2022/08/29 09:04:36;;;;;;;5.45;1.63;;;14.70;99.90;;;;;;5050714;28;20465;-77
2022/08/29 09:07:22;;;;;;;6.00;1.88;;;14.60;99.90;;;;;;5051347;28;20334;-80
2022/08/29 09:10:09;;;;;;;8.10;1.35;;;14.60;99.90;;;;;;5049025;28;20024;-76
2022/08/29 09:12:57;;;;;;;8.75;1.85;;;14.60;99.90;;;;;;5050838;28;20542;-81
2022/08/29 09:15:46;;;;;;;5.95;1.90;;;14.60;99.90;;;;;;5050257;28;20021;-77
2022/08/29 09:18:28;;;;;;;5.95;1.58;;;14.60;99.90;;;;;;5050447;28;20037;-77
2022/08/29 09:20:58;;;;;;;5.50;1.70;;;14.60;99.90;;;;;;5049471;28;20384;-81
2022/08/29 09:23:35;;;;;;;7.32;1.85;;;14.60;99.90;;;;;;5050397;28;20017;-76
2022/08/29 09:26:03;;;;;;;9.13;1.60;;;14.60;99.90;;;;;;5050411;28;20029;-77
2022/08/29 09:28:30;;;;;;;7.35;2.28;;;14.60;99.90;;;;;;5051683;28;20021;-72
2022/08/29 09:31:21;;;;;;;4.72;1.73;;;14.60;99.90;;;;;;5051510;28;20044;-78
2022/08/29 09:33:53;;;;;;;6.95;1.60;;;14.60;99.90;;;;;;5051763;28;20380;-75
2022/08/29 09:36:38;;;;;;;4.40;1.90;;;14.60;99.90;;;;;;5048857;28;20013;-76
2022/08/29 09:39:32;;;;;;;5.93;2.10;;;14.50;99.90;;;;;;5051309;28;20025;-76
2022/08/29 09:42:13;;;;;;;10.55;1.90;;;14.50;99.90;;;;;;5048950;28;20250;-72
2022/08/29 09:44:50;;;;;;;11.45;2.42;;;14.50;99.90;;;;;;5050558;28;20131;-78
2022/08/29 09:47:26;;;;;;;4.80;2.00;;;14.50;99.90;;;;;;5048920;28;20428;-74
2022/08/29 09:50:25;;;;;;;7.28;2.00;;;14.50;99.90;;;;;;5051366;28;20021;-77
2022/08/29 09:52:57;;;;;;;6.07;2.17;;;14.50;99.90;;;;;;5050399;28;20032;-77
2022/08/29 09:55:33;;;;;;;8.00;1.88;;;14.40;99.90;;;;;;5051395;28;20025;-77
2022/08/29 09:58:08;;;;;;;4.05;1.52;;;14.40;99.90;;;;;;5049565;28;20032;-73
2022/08/29 10:00:59;;;;;;;8.88;2.40;;;14.40;99.90;;;;;;5047676;28;20032;-79
2022/08/29 10:03:29;;;;;;;4.72;1.60;;;14.40;99.90;;;;;;5050580;28;20032;-74
2022/08/29 10:06:11;;;;;;;5.68;1.58;;;14.40;99.90;;;;;;5049111;28;20036;-72
2022/08/29 10:08:41;;;;;;;5.63;1.75;;;14.30;99.90;;;;;;5051274;28;20036;-72
2022/08/29 10:11:23;;;;;;;4.38;1.95;;;14.30;99.90;;;;;;5051011;28;20067;-77
2022/08/29 10:14:10;;;;;;;3.88;1.45;;;14.30;99.90;;;;;;5052166;28;20053;-75
2022/08/29 10:19:52;;;;;;;4.45;2.17;;;14.30;99.90;;;;;;5049177;28;20091;-76
2022/08/29 10:22:50;;;;;;;5.25;2.00;;;14.30;99.90;;;;;;5050616;28;20432;-76
2022/08/29 10:25:39;;;;;;;5.82;2.58;;;14.30;99.90;;;;;;5050593;28;20021;-72
2022/08/29 10:28:13;;;;;;;5.82;2.95;;;14.30;99.90;;;;;;5050821;28;20052;-77
2022/08/29 10:30:59;;;;;;;4.93;2.75;;;14.30;99.90;;;;;;5051926;28;20072;-71
2022/08/29 10:33:53;;;;;;;7.75;3.83;;;14.30;99.90;;;;;;5047703;28;20021;-77
2022/08/29 10:36:37;;;;;;;4.93;2.78;;;14.30;99.90;;;;;;5047835;28;20024;-77
2022/08/29 10:39:35;;;;;;;6.40;2.30;;;14.30;99.90;;;;;;5046439;28;20021;-76
2022/08/29 10:42:18;;;;;;;6.13;2.45;;;14.30;99.90;;;;;;5018634;28;20017;-77
2022/08/29 10:45:05;;;;;;;8.40;5.40;;;14.20;99.90;;;;;;5049582;28;20048;-77
2022/08/29 10:47:40;;;;;;;6.65;4.20;;;14.20;99.90;;;;;;5049194;28;20036;-77
2022/08/29 10:50:17;;;;;;;7.03;4.88;;;14.20;99.90;;;;;;5050611;28;20021;-73
2022/08/29 10:52:58;;;;;;;9.90;4.95;;;14.20;99.90;;;;;;5048810;28;20028;-77
2022/08/29 10:55:35;;;;;;;6.15;3.72;;;14.20;99.90;;;;;;5050696;28;20473;-73
2022/08/29 10:58:09;;;;;;;6.07;3.28;;;14.10;99.90;;;;;;5051783;28;20478;-80
2022/08/29 11:00:58;;;;;;;5.93;2.80;;;14.10;99.90;;;;;;5046936;28;20032;-77
2022/08/29 11:03:42;;;;;;;4.38;3.17;;;14.20;99.90;;;;;;5050958;28;20044;-78
2022/08/29 11:06:19;;;;;;;7.10;3.03;;;14.10;99.90;;;;;;5052597;28;20481;-78
2022/08/29 11:09:07;;;;;;;6.57;3.13;;;14.10;99.90;;;;;;5054553;28;20016;-78
2022/08/29 11:11:39;;;;;;;4.70;2.67;;;14.10;99.90;;;;;;5053960;28;20021;-74
2022/08/29 11:14:15;;;;;;;4.70;2.47;;;14.10;99.90;;;;;;5053482;28;20442;-75
2022/08/29 11:16:48;;;;;;;6.05;2.92;;;14.10;99.90;;;;;;5049979;28;20049;-77
2022/08/29 11:19:28;;;;;;;4.32;3.05;;;14.10;99.90;;;;;;5050885;28;20120;-76
2022/08/29 11:22:24;;;;;;;6.53;3.28;;;14.10;99.90;;;;;;5052795;28;20021;-79
2022/08/29 11:25:14;;;;;;;4.38;2.85;;;14.10;99.90;;;;;;5050719;28;20603;-82
2022/08/29 11:27:47;;;;;;;10.15;3.47;;;14.00;99.90;;;;;;5053875;28;20060;-74
2022/08/29 11:30:45;;;;;;;6.60;3.58;;;14.00;99.90;;;;;;5054855;28;20109;-77
2022/08/29 11:33:20;;;;;;;9.13;4.05;;;14.00;99.90;;;;;;5049767;28;20022;-75
2022/08/29 11:36:12;;;;;;;4.82;3.25;;;14.00;99.90;;;;;;5052643;28;20082;-76
2022/08/29 11:38:58;;;;;;;5.68;3.17;;;14.00;99.90;;;;;;5052752;28;20060;-75
2022/08/29 11:41:30;;;;;;;7.45;3.60;;;14.00;99.90;;;;;;5052415;28;20481;-76
2022/08/29 11:44:08;;;;;;;7.15;4.32;;;13.90;99.90;;;;;;5052522;28;20032;-79
2022/08/29 11:46:46;;;;;;;7.85;4.32;;;13.90;99.90;;;;;;5053337;28;20477;-76
2022/08/29 11:49:38;;;;;;;6.20;4.15;;;13.90;99.90;;;;;;5051143;28;20122;-79
2022/08/29 11:52:11;;;;;;;6.45;3.65;;;13.90;99.90;;;;;;5052086;28;20021;-77
2022/08/29 11:54:39;;;;;;;10.20;4.00;;;13.80;99.90;;;;;;5053297;28;20503;-79
2022/08/29 11:57:10;;;;;;;5.93;3.47;;;13.80;99.90;;;;;;5052186;28;20056;-78
2022/08/29 11:59:59;;;;;;;5.10;3.50;;;13.70;99.90;;;;;;5051397;28;20359;-76
2022/08/29 12:02:29;;;;;;;5.85;3.63;;;13.70;99.90;;;;;;5051950;28;20485;-79
2022/08/29 12:04:58;;;;;;;5.78;3.65;;;13.70;99.90;;;;;;5052154;28;20033;-77
2022/08/29 12:07:35;;;;;;;5.45;3.25;;;13.70;99.90;;;;;;5051324;28;20469;-79
2022/08/29 12:10:28;;;;;;;7.00;3.38;;;13.60;99.90;;;;;;5052915;28;20032;-79
2022/08/29 12:12:59;;;;;;;8.60;3.50;;;13.60;99.90;;;;;;5052913;28;20503;-73
2022/08/29 12:15:33;;;;;;;6.28;3.15;;;13.60;99.90;;;;;;5053358;28;20025;-76
2022/08/29 12:18:22;;;;;;;6.88;3.45;;;13.60;99.90;;;;;;5049784;28;20068;-78
2022/08/29 12:20:54;;;;;;;4.57;3.53;;;13.60;99.90;;;;;;5051365;28;20013;-73
2022/08/29 12:23:36;;;;;;;6.45;3.03;;;13.50;99.90;;;;;;5049315;28;20384;-74
2022/08/29 12:26:25;;;;;;;4.75;3.22;;;13.50;99.90;;;;;;5052701;28;20388;-79
2022/08/29 12:29:00;;;;;;;3.45;2.58;;;13.50;99.90;;;;;;5034607;28;20436;-79
2022/08/29 12:31:40;;;;;;;3.30;2.00;;;13.50;99.90;;;;;;5050891;28;20363;-76
2022/08/29 12:34:33;;;;;;;6.53;3.20;;;13.40;99.90;;;;;;5051488;28;20017;-80
2022/08/29 12:37:26;;;;;;;3.38;2.22;;;13.40;99.90;;;;;;5051627;28;20024;-79
2022/08/29 12:40:16;;;;;;;3.47;2.45;;;13.40;99.90;;;;;;5050781;28;20028;-79
2022/08/29 12:43:05;;;;;;;6.95;3.00;;;13.30;99.90;;;;;;5052595;28;20477;-79
2022/08/29 12:45:36;;;;;;;6.00;2.60;;;13.30;99.90;;;;;;5049244;28;20021;-79
2022/08/29 12:48:14;;;;;;;3.83;2.40;;;13.30;99.90;;;;;;5051943;28;20025;-80
2022/08/29 12:50:49;;;;;;;3.05;2.13;;;13.30;99.90;;;;;;5032994;28;20029;-78
2022/08/29 12:53:33;;;;;;;4.30;2.20;;;13.30;99.90;;;;;;5052637;28;20025;-79
2022/08/29 12:56:20;;;;;;;4.78;2.63;;;13.30;99.90;;;;;;5052750;28;20100;-79
2022/08/29 12:59:00;;;;;;;5.07;2.50;;;13.20;99.90;;;;;;5051886;28;20473;-79
2022/08/29 13:01:39;;;;;;;4.15;2.13;;;13.20;99.90;;;;;;5049134;28;20020;-79
2022/08/29 13:04:10;;;;;;;5.85;2.00;;;13.20;99.90;;;;;;5049376;28;20121;-77
2022/08/29 13:06:59;;;;;;;3.75;2.00;;;13.20;99.90;;;;;;5051673;28;20021;-79
2022/08/29 13:09:32;;;;;;;2.80;1.70;;;13.20;99.90;;;;;;5050970;28;20025;-79
2022/08/29 13:12:33;;;;;;;3.15;1.85;;;13.20;99.90;;;;;;5052419;28;20028;-76
2022/08/29 13:15:08;;;;;;;2.33;2.05;;;13.30;99.90;;;;;;5052450;28;20481;-76
2022/08/29 13:17:45;;;;;;;5.57;1.80;;;13.30;99.90;;;;;;5045802;28;20481;-76
2022/08/29 13:20:49;;;;;;;4.60;1.75;;;13.20;99.90;;;;;;5038571;28;20044;-76